Terminal Aerodrome Forecast
Issued by NWS

Home | Current Version | Previous Version | Text Only | Print | Product List | Glossary On
Versions: 1 2 3 4 5 6 7 8 9 10 11 12 13 14 15 16 17 18 19 20 21 22 23 24
000
FTUS42 KMFL 200540
TAFFXE
TAF
KFXE 200540Z 2006/2106 31004KT P6SM FEW030 SCT060 BKN090
     FM201000 02008KT P6SM SCT020 BKN050 BKN070
     FM201600 06014G23KT P6SM VCSH BKN040
     FM210000 05010KT P6SM VCSH BKN035=

USA.gov is the U.S. government's official web portal to all federal, state and local government web resources and services.